sensor_id;sensor_type;location;lat;lon;timestamp;P1;durP1;ratioP1;P2;durP2;ratioP2
12112;SDS011;6120;52.250;8.478;2022-09-30T00:01:50;15.15;;;10.15;;
12112;SDS011;6120;52.250;8.478;2022-09-30T00:04:18;15.07;;;10.93;;
12112;SDS011;6120;52.250;8.478;2022-09-30T00:06:46;14.15;;;10.45;;
12112;SDS011;6120;52.250;8.478;2022-09-30T00:09:13;14.48;;;10.57;;
12112;SDS011;6120;52.250;8.478;2022-09-30T00:11:41;13.63;;;9.70;;
12112;SDS011;6120;52.250;8.478;2022-09-30T00:14:11;13.63;;;10.00;;
12112;SDS011;6120;52.250;8.478;2022-09-30T00:16:41;12.85;;;9.95;;
12112;SDS011;6120;52.250;8.478;2022-09-30T00:19:08;13.35;;;9.60;;
12112;SDS011;6120;52.250;8.478;2022-09-30T00:21:35;13.32;;;10.23;;
12112;SDS011;6120;52.250;8.478;2022-09-30T00:24:02;15.38;;;10.27;;
12112;SDS011;6120;52.250;8.478;2022-09-30T00:26:29;13.68;;;10.35;;
12112;SDS011;6120;52.250;8.478;2022-09-30T00:28:57;13.68;;;10.50;;
12112;SDS011;6120;52.250;8.478;2022-09-30T00:31:25;14.23;;;10.70;;
12112;SDS011;6120;52.250;8.478;2022-09-30T00:33:55;13.43;;;10.07;;
12112;SDS011;6120;52.250;8.478;2022-09-30T00:36:39;13.38;;;9.88;;
12112;SDS011;6120;52.250;8.478;2022-09-30T00:39:15;12.90;;;9.43;;
12112;SDS011;6120;52.250;8.478;2022-09-30T00:41:44;13.05;;;9.55;;
12112;SDS011;6120;52.250;8.478;2022-09-30T00:53:16;14.23;;;9.57;;
12112;SDS011;6120;52.250;8.478;2022-09-30T00:58:29;12.77;;;9.50;;
12112;SDS011;6120;52.250;8.478;2022-09-30T01:01:01;15.73;;;11.82;;
12112;SDS011;6120;52.250;8.478;2022-09-30T01:03:29;15.57;;;10.13;;
12112;SDS011;6120;52.250;8.478;2022-09-30T01:05:57;13.20;;;9.38;;
12112;SDS011;6120;52.250;8.478;2022-09-30T01:08:24;12.23;;;9.35;;
12112;SDS011;6120;52.250;8.478;2022-09-30T01:10:51;12.40;;;9.45;;
12112;SDS011;6120;52.250;8.478;2022-09-30T01:13:17;11.52;;;8.80;;
12112;SDS011;6120;52.250;8.478;2022-09-30T01:18:29;11.90;;;8.63;;
12112;SDS011;6120;52.250;8.478;2022-09-30T01:24:05;12.32;;;9.40;;
12112;SDS011;6120;52.250;8.478;2022-09-30T01:35:35;11.50;;;8.32;;
12112;SDS011;6120;52.250;8.478;2022-09-30T01:38:20;11.25;;;8.68;;
12112;SDS011;6120;52.250;8.478;2022-09-30T01:41:05;11.00;;;8.23;;
12112;SDS011;6120;52.250;8.478;2022-09-30T01:46:39;13.00;;;8.77;;
12112;SDS011;6120;52.250;8.478;2022-09-30T01:49:18;11.25;;;8.63;;
12112;SDS011;6120;52.250;8.478;2022-09-30T01:51:57;16.52;;;11.23;;
12112;SDS011;6120;52.250;8.478;2022-09-30T01:54:39;13.45;;;9.68;;
12112;SDS011;6120;52.250;8.478;2022-09-30T02:00:03;14.38;;;9.10;;
12112;SDS011;6120;52.250;8.478;2022-09-30T02:02:34;13.70;;;9.48;;
12112;SDS011;6120;52.250;8.478;2022-09-30T02:05:08;16.25;;;11.48;;
12112;SDS011;6120;52.250;8.478;2022-09-30T02:07:40;18.55;;;10.95;;
12112;SDS011;6120;52.250;8.478;2022-09-30T02:10:11;15.48;;;10.90;;
12112;SDS011;6120;52.250;8.478;2022-09-30T02:12:40;15.48;;;10.88;;
12112;SDS011;6120;52.250;8.478;2022-09-30T02:15:14;14.98;;;10.40;;
12112;SDS011;6120;52.250;8.478;2022-09-30T02:17:47;14.70;;;9.48;;
12112;SDS011;6120;52.250;8.478;2022-09-30T02:20:24;15.10;;;10.43;;
12112;SDS011;6120;52.250;8.478;2022-09-30T02:23:01;13.93;;;9.70;;
12112;SDS011;6120;52.250;8.478;2022-09-30T02:25:31;14.07;;;10.68;;
12112;SDS011;6120;52.250;8.478;2022-09-30T02:28:02;12.63;;;9.50;;
12112;SDS011;6120;52.250;8.478;2022-09-30T02:30:33;15.15;;;10.57;;
12112;SDS011;6120;52.250;8.478;2022-09-30T02:33:02;13.80;;;11.05;;
12112;SDS011;6120;52.250;8.478;2022-09-30T02:35:36;14.60;;;10.90;;
12112;SDS011;6120;52.250;8.478;2022-09-30T02:38:06;15.38;;;10.30;;
12112;SDS011;6120;52.250;8.478;2022-09-30T02:40:39;14.63;;;9.77;;
12112;SDS011;6120;52.250;8.478;2022-09-30T02:43:09;15.32;;;10.50;;
12112;SDS011;6120;52.250;8.478;2022-09-30T02:45:42;15.23;;;10.73;;
12112;SDS011;6120;52.250;8.478;2022-09-30T02:50:52;15.63;;;10.23;;
12112;SDS011;6120;52.250;8.478;2022-09-30T02:58:48;13.00;;;9.40;;
12112;SDS011;6120;52.250;8.478;2022-09-30T03:01:15;15.50;;;11.38;;
12112;SDS011;6120;52.250;8.478;2022-09-30T03:03:49;13.07;;;10.00;;
12112;SDS011;6120;52.250;8.478;2022-09-30T03:06:18;12.95;;;9.23;;
12112;SDS011;6120;52.250;8.478;2022-09-30T03:08:45;13.82;;;9.52;;
12112;SDS011;6120;52.250;8.478;2022-09-30T03:11:16;17.73;;;9.93;;
12112;SDS011;6120;52.250;8.478;2022-09-30T03:16:49;15.05;;;9.32;;
12112;SDS011;6120;52.250;8.478;2022-09-30T03:19:47;12.85;;;9.30;;
12112;SDS011;6120;52.250;8.478;2022-09-30T03:25:17;12.52;;;9.30;;
12112;SDS011;6120;52.250;8.478;2022-09-30T03:30:45;13.10;;;10.10;;
12112;SDS011;6120;52.250;8.478;2022-09-30T03:34:06;12.25;;;9.27;;
12112;SDS011;6120;52.250;8.478;2022-09-30T03:42:08;13.38;;;8.77;;
12112;SDS011;6120;52.250;8.478;2022-09-30T03:44:42;12.68;;;9.05;;
12112;SDS011;6120;52.250;8.478;2022-09-30T03:47:12;11.75;;;9.20;;
12112;SDS011;6120;52.250;8.478;2022-09-30T03:52:17;14.20;;;10.18;;
12112;SDS011;6120;52.250;8.478;2022-09-30T03:54:51;15.00;;;10.43;;
12112;SDS011;6120;52.250;8.478;2022-09-30T03:57:20;13.45;;;9.80;;
12112;SDS011;6120;52.250;8.478;2022-09-30T03:59:46;15.43;;;9.50;;
12112;SDS011;6120;52.250;8.478;2022-09-30T04:02:13;15.43;;;9.98;;
12112;SDS011;6120;52.250;8.478;2022-09-30T04:04:39;12.98;;;9.27;;
12112;SDS011;6120;52.250;8.478;2022-09-30T04:07:09;11.77;;;9.25;;
12112;SDS011;6120;52.250;8.478;2022-09-30T04:09:37;12.52;;;9.68;;
12112;SDS011;6120;52.250;8.478;2022-09-30T04:12:04;14.00;;;11.07;;
12112;SDS011;6120;52.250;8.478;2022-09-30T04:14:31;15.32;;;10.38;;
12112;SDS011;6120;52.250;8.478;2022-09-30T04:16:57;14.65;;;11.20;;
12112;SDS011;6120;52.250;8.478;2022-09-30T04:19:24;13.18;;;9.07;;
12112;SDS011;6120;52.250;8.478;2022-09-30T04:21:51;12.90;;;9.88;;
12112;SDS011;6120;52.250;8.478;2022-09-30T04:24:19;13.48;;;9.38;;
12112;SDS011;6120;52.250;8.478;2022-09-30T04:26:46;13.32;;;8.65;;
12112;SDS011;6120;52.250;8.478;2022-09-30T04:29:13;14.00;;;9.18;;
12112;SDS011;6120;52.250;8.478;2022-09-30T04:31:40;13.55;;;9.32;;
12112;SDS011;6120;52.250;8.478;2022-09-30T04:34:07;14.02;;;9.90;;
12112;SDS011;6120;52.250;8.478;2022-09-30T04:36:36;13.35;;;9.32;;
12112;SDS011;6120;52.250;8.478;2022-09-30T04:39:03;14.38;;;10.60;;
12112;SDS011;6120;52.250;8.478;2022-09-30T04:41:29;14.63;;;11.07;;
12112;SDS011;6120;52.250;8.478;2022-09-30T04:43:57;14.77;;;10.10;;
12112;SDS011;6120;52.250;8.478;2022-09-30T04:46:24;13.13;;;9.43;;
12112;SDS011;6120;52.250;8.478;2022-09-30T04:48:51;15.90;;;10.95;;
12112;SDS011;6120;52.250;8.478;2022-09-30T04:51:19;13.77;;;10.13;;
12112;SDS011;6120;52.250;8.478;2022-09-30T04:53:46;14.30;;;9.63;;
12112;SDS011;6120;52.250;8.478;2022-09-30T04:56:14;15.05;;;9.75;;
12112;SDS011;6120;52.250;8.478;2022-09-30T04:58:42;13.75;;;9.65;;
12112;SDS011;6120;52.250;8.478;2022-09-30T05:01:10;13.38;;;9.40;;
12112;SDS011;6120;52.250;8.478;2022-09-30T05:03:38;13.68;;;9.40;;
12112;SDS011;6120;52.250;8.478;2022-09-30T05:06:06;13.20;;;9.57;;
12112;SDS011;6120;52.250;8.478;2022-09-30T05:08:33;13.55;;;9.98;;
12112;SDS011;6120;52.250;8.478;2022-09-30T05:11:00;12.38;;;9.23;;
12112;SDS011;6120;52.250;8.478;2022-09-30T05:13:30;14.65;;;9.48;;
12112;SDS011;6120;52.250;8.478;2022-09-30T05:15:58;15.23;;;10.20;;
12112;SDS011;6120;52.250;8.478;2022-09-30T05:18:25;13.30;;;9.35;;
12112;SDS011;6120;52.250;8.478;2022-09-30T05:20:53;13.40;;;9.70;;
12112;SDS011;6120;52.250;8.478;2022-09-30T05:23:22;14.40;;;9.32;;
12112;SDS011;6120;52.250;8.478;2022-09-30T05:25:50;15.13;;;9.10;;
12112;SDS011;6120;52.250;8.478;2022-09-30T05:28:17;13.80;;;9.40;;
12112;SDS011;6120;52.250;8.478;2022-09-30T05:30:44;15.30;;;9.80;;
12112;SDS011;6120;52.250;8.478;2022-09-30T05:33:11;13.10;;;8.85;;
12112;SDS011;6120;52.250;8.478;2022-09-30T05:35:39;14.73;;;10.05;;
12112;SDS011;6120;52.250;8.478;2022-09-30T05:38:07;14.23;;;10.57;;
12112;SDS011;6120;52.250;8.478;2022-09-30T05:40:36;15.23;;;10.15;;
12112;SDS011;6120;52.250;8.478;2022-09-30T05:43:05;14.23;;;9.85;;
12112;SDS011;6120;52.250;8.478;2022-09-30T05:45:32;13.95;;;10.07;;
12112;SDS011;6120;52.250;8.478;2022-09-30T05:47:59;15.73;;;10.07;;
12112;SDS011;6120;52.250;8.478;2022-09-30T05:50:26;14.55;;;9.35;;
12112;SDS011;6120;52.250;8.478;2022-09-30T05:52:53;16.15;;;10.55;;
12112;SDS011;6120;52.250;8.478;2022-09-30T05:55:19;13.32;;;9.82;;
12112;SDS011;6120;52.250;8.478;2022-09-30T05:57:48;14.07;;;9.18;;
12112;SDS011;6120;52.250;8.478;2022-09-30T06:00:16;14.23;;;9.70;;
12112;SDS011;6120;52.250;8.478;2022-09-30T06:02:43;15.67;;;9.83;;
12112;SDS011;6120;52.250;8.478;2022-09-30T06:05:10;15.38;;;9.63;;
12112;SDS011;6120;52.250;8.478;2022-09-30T06:07:38;15.30;;;10.57;;
12112;SDS011;6120;52.250;8.478;2022-09-30T06:10:06;16.08;;;10.05;;
12112;SDS011;6120;52.250;8.478;2022-09-30T06:12:37;16.67;;;10.13;;
12112;SDS011;6120;52.250;8.478;2022-09-30T06:15:04;14.68;;;10.15;;
12112;SDS011;6120;52.250;8.478;2022-09-30T06:17:32;17.33;;;10.45;;
12112;SDS011;6120;52.250;8.478;2022-09-30T06:19:59;15.63;;;10.55;;
12112;SDS011;6120;52.250;8.478;2022-09-30T06:22:26;14.63;;;10.35;;
12112;SDS011;6120;52.250;8.478;2022-09-30T06:24:53;14.90;;;10.70;;
12112;SDS011;6120;52.250;8.478;2022-09-30T06:27:20;14.30;;;9.35;;
12112;SDS011;6120;52.250;8.478;2022-09-30T06:29:47;16.70;;;10.07;;
12112;SDS011;6120;52.250;8.478;2022-09-30T06:32:14;17.05;;;10.32;;
12112;SDS011;6120;52.250;8.478;2022-09-30T06:34:42;15.07;;;10.02;;
12112;SDS011;6120;52.250;8.478;2022-09-30T06:37:09;13.52;;;9.38;;
12112;SDS011;6120;52.250;8.478;2022-09-30T06:39:38;17.13;;;11.80;;
12112;SDS011;6120;52.250;8.478;2022-09-30T06:42:06;24.67;;;14.50;;
12112;SDS011;6120;52.250;8.478;2022-09-30T06:44:33;21.33;;;12.45;;
12112;SDS011;6120;52.250;8.478;2022-09-30T06:47:15;19.67;;;10.68;;
12112;SDS011;6120;52.250;8.478;2022-09-30T06:49:50;21.98;;;12.95;;
12112;SDS011;6120;52.250;8.478;2022-09-30T06:52:18;26.30;;;13.00;;
12112;SDS011;6120;52.250;8.478;2022-09-30T06:54:45;14.88;;;10.95;;
12112;SDS011;6120;52.250;8.478;2022-09-30T06:57:12;14.25;;;10.00;;
12112;SDS011;6120;52.250;8.478;2022-09-30T06:59:38;16.80;;;11.10;;
12112;SDS011;6120;52.250;8.478;2022-09-30T07:02:07;14.75;;;10.02;;
12112;SDS011;6120;52.250;8.478;2022-09-30T07:04:34;16.00;;;10.95;;
12112;SDS011;6120;52.250;8.478;2022-09-30T07:07:01;14.07;;;10.70;;
12112;SDS011;6120;52.250;8.478;2022-09-30T07:09:28;16.00;;;10.48;;
12112;SDS011;6120;52.250;8.478;2022-09-30T07:11:55;14.20;;;10.40;;
12112;SDS011;6120;52.250;8.478;2022-09-30T07:14:22;12.13;;;9.13;;
12112;SDS011;6120;52.250;8.478;2022-09-30T07:16:49;15.38;;;9.82;;
12112;SDS011;6120;52.250;8.478;2022-09-30T07:19:18;15.80;;;10.35;;
12112;SDS011;6120;52.250;8.478;2022-09-30T07:21:48;12.18;;;8.90;;
12112;SDS011;6120;52.250;8.478;2022-09-30T07:24:15;14.32;;;10.48;;
12112;SDS011;6120;52.250;8.478;2022-09-30T07:26:42;13.60;;;9.63;;
12112;SDS011;6120;52.250;8.478;2022-09-30T07:29:11;17.73;;;10.27;;
12112;SDS011;6120;52.250;8.478;2022-09-30T07:34:06;15.02;;;10.32;;
12112;SDS011;6120;52.250;8.478;2022-09-30T07:39:03;20.77;;;10.60;;
12112;SDS011;6120;52.250;8.478;2022-09-30T07:41:33;13.70;;;9.82;;
12112;SDS011;6120;52.250;8.478;2022-09-30T07:44:01;16.02;;;11.85;;
12112;SDS011;6120;52.250;8.478;2022-09-30T07:46:29;16.38;;;10.63;;
12112;SDS011;6120;52.250;8.478;2022-09-30T07:48:57;16.25;;;10.90;;
12112;SDS011;6120;52.250;8.478;2022-09-30T07:51:28;15.77;;;10.82;;
12112;SDS011;6120;52.250;8.478;2022-09-30T07:53:58;12.63;;;9.70;;
12112;SDS011;6120;52.250;8.478;2022-09-30T07:56:26;14.07;;;9.98;;
12112;SDS011;6120;52.250;8.478;2022-09-30T07:59:15;16.52;;;10.52;;
12112;SDS011;6120;52.250;8.478;2022-09-30T08:01:42;16.80;;;11.57;;
12112;SDS011;6120;52.250;8.478;2022-09-30T08:04:10;16.13;;;11.40;;
12112;SDS011;6120;52.250;8.478;2022-09-30T08:09:05;17.83;;;11.07;;
12112;SDS011;6120;52.250;8.478;2022-09-30T08:11:33;17.95;;;11.25;;
12112;SDS011;6120;52.250;8.478;2022-09-30T08:14:00;18.75;;;11.07;;
12112;SDS011;6120;52.250;8.478;2022-09-30T08:16:27;17.58;;;11.40;;
12112;SDS011;6120;52.250;8.478;2022-09-30T08:18:55;18.58;;;12.40;;
12112;SDS011;6120;52.250;8.478;2022-09-30T08:21:26;16.23;;;11.40;;
12112;SDS011;6120;52.250;8.478;2022-09-30T08:23:53;16.40;;;10.85;;
12112;SDS011;6120;52.250;8.478;2022-09-30T08:26:20;18.02;;;12.23;;
12112;SDS011;6120;52.250;8.478;2022-09-30T08:28:47;18.17;;;12.05;;
12112;SDS011;6120;52.250;8.478;2022-09-30T08:31:15;25.75;;;14.40;;
12112;SDS011;6120;52.250;8.478;2022-09-30T08:33:43;17.80;;;11.38;;
12112;SDS011;6120;52.250;8.478;2022-09-30T08:36:14;17.15;;;12.23;;
12112;SDS011;6120;52.250;8.478;2022-09-30T08:38:42;18.65;;;13.00;;
12112;SDS011;6120;52.250;8.478;2022-09-30T08:52:41;18.83;;;12.43;;
12112;SDS011;6120;52.250;8.478;2022-09-30T08:55:57;19.15;;;12.05;;
12112;SDS011;6120;52.250;8.478;2022-09-30T08:58:08;18.45;;;12.15;;
12112;SDS011;6120;52.250;8.478;2022-09-30T09:00:53;17.70;;;11.10;;
12112;SDS011;6120;52.250;8.478;2022-09-30T09:03:27;15.32;;;11.27;;
12112;SDS011;6120;52.250;8.478;2022-09-30T09:19:56;18.55;;;11.85;;
12112;SDS011;6120;52.250;8.478;2022-09-30T09:22:32;14.13;;;10.15;;
12112;SDS011;6120;52.250;8.478;2022-09-30T09:24:59;16.27;;;11.57;;
12112;SDS011;6120;52.250;8.478;2022-09-30T09:30:17;20.85;;;12.25;;
12112;SDS011;6120;52.250;8.478;2022-09-30T09:32:48;14.75;;;10.18;;
12112;SDS011;6120;52.250;8.478;2022-09-30T09:35:28;17.20;;;11.30;;
12112;SDS011;6120;52.250;8.478;2022-09-30T09:38:18;16.48;;;11.15;;
12112;SDS011;6120;52.250;8.478;2022-09-30T09:46:44;15.82;;;10.73;;
12112;SDS011;6120;52.250;8.478;2022-09-30T09:51:42;18.98;;;11.50;;
12112;SDS011;6120;52.250;8.478;2022-09-30T09:54:13;20.10;;;12.80;;
12112;SDS011;6120;52.250;8.478;2022-09-30T09:56:42;23.23;;;12.65;;
12112;SDS011;6120;52.250;8.478;2022-09-30T09:59:16;20.23;;;12.38;;
12112;SDS011;6120;52.250;8.478;2022-09-30T10:01:47;22.83;;;13.65;;
12112;SDS011;6120;52.250;8.478;2022-09-30T10:04:20;25.55;;;13.90;;
12112;SDS011;6120;52.250;8.478;2022-09-30T10:06:56;19.95;;;11.18;;
12112;SDS011;6120;52.250;8.478;2022-09-30T10:09:30;18.52;;;11.23;;
12112;SDS011;6120;52.250;8.478;2022-09-30T10:14:33;18.13;;;10.88;;
12112;SDS011;6120;52.250;8.478;2022-09-30T10:17:01;17.75;;;10.38;;
12112;SDS011;6120;52.250;8.478;2022-09-30T10:19:30;21.60;;;11.05;;
12112;SDS011;6120;52.250;8.478;2022-09-30T10:24:35;20.17;;;11.60;;
12112;SDS011;6120;52.250;8.478;2022-09-30T10:29:31;18.58;;;10.85;;
12112;SDS011;6120;52.250;8.478;2022-09-30T10:32:01;17.67;;;9.55;;
12112;SDS011;6120;52.250;8.478;2022-09-30T10:34:29;14.40;;;9.85;;
12112;SDS011;6120;52.250;8.478;2022-09-30T10:37:00;16.10;;;9.27;;
12112;SDS011;6120;52.250;8.478;2022-09-30T10:39:29;18.85;;;10.32;;
12112;SDS011;6120;52.250;8.478;2022-09-30T10:42:05;18.80;;;11.50;;
12112;SDS011;6120;52.250;8.478;2022-09-30T10:44:42;16.23;;;10.23;;
12112;SDS011;6120;52.250;8.478;2022-09-30T10:47:15;17.73;;;9.68;;
12112;SDS011;6120;52.250;8.478;2022-09-30T10:49:45;17.08;;;10.20;;
12112;SDS011;6120;52.250;8.478;2022-09-30T10:52:25;16.73;;;9.38;;
12112;SDS011;6120;52.250;8.478;2022-09-30T10:59:59;16.92;;;10.55;;
12112;SDS011;6120;52.250;8.478;2022-09-30T11:05:30;15.55;;;10.43;;
12112;SDS011;6120;52.250;8.478;2022-09-30T11:08:15;15.18;;;10.50;;
12112;SDS011;6120;52.250;8.478;2022-09-30T11:18:36;17.80;;;10.55;;
12112;SDS011;6120;52.250;8.478;2022-09-30T11:21:26;17.27;;;9.45;;
12112;SDS011;6120;52.250;8.478;2022-09-30T11:24:02;16.85;;;10.23;;
12112;SDS011;6120;52.250;8.478;2022-09-30T11:26:42;15.73;;;10.25;;
12112;SDS011;6120;52.250;8.478;2022-09-30T11:29:56;11.77;;;7.95;;
12112;SDS011;6120;52.250;8.478;2022-09-30T11:49:24;14.02;;;8.70;;
12112;SDS011;6120;52.250;8.478;2022-09-30T11:52:17;10.30;;;7.40;;
12112;SDS011;6120;52.250;8.478;2022-09-30T11:54:54;15.23;;;9.38;;
12112;SDS011;6120;52.250;8.478;2022-09-30T12:00:43;11.60;;;8.80;;
12112;SDS011;6120;52.250;8.478;2022-09-30T12:03:17;12.13;;;8.63;;
12112;SDS011;6120;52.250;8.478;2022-09-30T12:05:50;11.73;;;9.07;;
12112;SDS011;6120;52.250;8.478;2022-09-30T12:08:21;14.10;;;9.85;;
12112;SDS011;6120;52.250;8.478;2022-09-30T12:10:51;15.40;;;8.73;;
12112;SDS011;6120;52.250;8.478;2022-09-30T12:13:30;10.77;;;7.47;;
12112;SDS011;6120;52.250;8.478;2022-09-30T12:16:02;11.82;;;8.93;;
12112;SDS011;6120;52.250;8.478;2022-09-30T12:18:41;12.32;;;7.25;;
12112;SDS011;6120;52.250;8.478;2022-09-30T12:24:07;11.05;;;8.45;;
12112;SDS011;6120;52.250;8.478;2022-09-30T12:26:36;11.07;;;7.63;;
12112;SDS011;6120;52.250;8.478;2022-09-30T12:29:23;17.20;;;9.18;;
12112;SDS011;6120;52.250;8.478;2022-09-30T12:32:19;16.13;;;9.07;;
12112;SDS011;6120;52.250;8.478;2022-09-30T12:45:58;13.30;;;6.55;;
12112;SDS011;6120;52.250;8.478;2022-09-30T12:48:41;10.13;;;6.50;;
12112;SDS011;6120;52.250;8.478;2022-09-30T12:51:29;9.85;;;5.45;;
12112;SDS011;6120;52.250;8.478;2022-09-30T12:56:26;10.52;;;5.70;;
12112;SDS011;6120;52.250;8.478;2022-09-30T12:58:54;8.77;;;5.25;;
12112;SDS011;6120;52.250;8.478;2022-09-30T13:01:23;13.40;;;5.78;;
12112;SDS011;6120;52.250;8.478;2022-09-30T13:07:03;9.50;;;5.15;;
12112;SDS011;6120;52.250;8.478;2022-09-30T13:14:41;9.23;;;5.28;;
12112;SDS011;6120;52.250;8.478;2022-09-30T13:19:39;8.45;;;5.20;;
12112;SDS011;6120;52.250;8.478;2022-09-30T13:46:21;6.93;;;4.13;;
12112;SDS011;6120;52.250;8.478;2022-09-30T13:48:56;5.50;;;3.83;;
12112;SDS011;6120;52.250;8.478;2022-09-30T13:51:27;8.70;;;4.50;;
12112;SDS011;6120;52.250;8.478;2022-09-30T13:53:56;6.00;;;3.97;;
12112;SDS011;6120;52.250;8.478;2022-09-30T13:56:27;6.63;;;3.78;;
12112;SDS011;6120;52.250;8.478;2022-09-30T14:07:15;7.03;;;3.45;;
12112;SDS011;6120;52.250;8.478;2022-09-30T14:15:42;6.05;;;3.00;;
12112;SDS011;6120;52.250;8.478;2022-09-30T14:18:23;6.70;;;3.50;;
12112;SDS011;6120;52.250;8.478;2022-09-30T14:31:42;6.63;;;2.92;;
12112;SDS011;6120;52.250;8.478;2022-09-30T14:34:10;7.43;;;2.88;;
12112;SDS011;6120;52.250;8.478;2022-09-30T14:39:05;3.75;;;2.00;;
12112;SDS011;6120;52.250;8.478;2022-09-30T14:41:48;3.20;;;2.03;;
12112;SDS011;6120;52.250;8.478;2022-09-30T14:44:16;4.95;;;2.40;;
12112;SDS011;6120;52.250;8.478;2022-09-30T14:49:13;6.72;;;2.58;;
12112;SDS011;6120;52.250;8.478;2022-09-30T14:51:43;6.00;;;2.42;;
12112;SDS011;6120;52.250;8.478;2022-09-30T14:54:19;3.70;;;2.13;;
12112;SDS011;6120;52.250;8.478;2022-09-30T14:56:47;4.57;;;2.10;;
12112;SDS011;6120;52.250;8.478;2022-09-30T15:01:42;9.90;;;2.47;;
12112;SDS011;6120;52.250;8.478;2022-09-30T15:04:11;5.00;;;1.80;;
12112;SDS011;6120;52.250;8.478;2022-09-30T15:06:42;3.45;;;1.95;;
12112;SDS011;6120;52.250;8.478;2022-09-30T15:12:15;4.15;;;1.83;;
12112;SDS011;6120;52.250;8.478;2022-09-30T15:14:57;4.93;;;2.13;;
12112;SDS011;6120;52.250;8.478;2022-09-30T15:19:52;4.35;;;2.20;;
12112;SDS011;6120;52.250;8.478;2022-09-30T15:24:49;3.70;;;1.77;;
12112;SDS011;6120;52.250;8.478;2022-09-30T15:27:20;5.47;;;2.50;;
12112;SDS011;6120;52.250;8.478;2022-09-30T15:29:57;4.22;;;2.10;;
12112;SDS011;6120;52.250;8.478;2022-09-30T15:32:26;6.43;;;2.50;;
12112;SDS011;6120;52.250;8.478;2022-09-30T15:34:54;6.18;;;2.15;;
12112;SDS011;6120;52.250;8.478;2022-09-30T15:37:24;5.13;;;2.20;;
12112;SDS011;6120;52.250;8.478;2022-09-30T15:39:55;5.28;;;2.20;;
12112;SDS011;6120;52.250;8.478;2022-09-30T15:43:29;7.22;;;2.20;;
12112;SDS011;6120;52.250;8.478;2022-09-30T15:45:38;3.25;;;1.75;;
12112;SDS011;6120;52.250;8.478;2022-09-30T15:48:30;7.05;;;2.50;;
12112;SDS011;6120;52.250;8.478;2022-09-30T15:51:00;5.97;;;2.58;;
12112;SDS011;6120;52.250;8.478;2022-09-30T15:53:51;3.42;;;1.80;;
12112;SDS011;6120;52.250;8.478;2022-09-30T15:58:57;4.10;;;2.28;;
12112;SDS011;6120;52.250;8.478;2022-09-30T16:12:01;5.00;;;2.20;;
12112;SDS011;6120;52.250;8.478;2022-09-30T16:17:33;5.03;;;2.30;;
12112;SDS011;6120;52.250;8.478;2022-09-30T16:20:09;4.15;;;2.00;;
12112;SDS011;6120;52.250;8.478;2022-09-30T16:22:51;3.47;;;1.85;;
12112;SDS011;6120;52.250;8.478;2022-09-30T16:25:23;5.45;;;2.00;;
12112;SDS011;6120;52.250;8.478;2022-09-30T16:28:15;5.30;;;2.60;;
12112;SDS011;6120;52.250;8.478;2022-09-30T16:30:47;3.50;;;2.13;;
12112;SDS011;6120;52.250;8.478;2022-09-30T16:33:15;4.80;;;2.58;;
12112;SDS011;6120;52.250;8.478;2022-09-30T16:35:42;6.38;;;2.50;;
12112;SDS011;6120;52.250;8.478;2022-09-30T16:38:12;5.13;;;2.28;;
12112;SDS011;6120;52.250;8.478;2022-09-30T16:40:40;4.05;;;2.53;;
12112;SDS011;6120;52.250;8.478;2022-09-30T16:43:06;4.22;;;2.13;;
12112;SDS011;6120;52.250;8.478;2022-09-30T16:45:37;6.30;;;2.90;;
12112;SDS011;6120;52.250;8.478;2022-09-30T16:50:47;3.60;;;1.77;;
12112;SDS011;6120;52.250;8.478;2022-09-30T16:53:14;5.90;;;2.90;;
12112;SDS011;6120;52.250;8.478;2022-09-30T16:55:41;4.63;;;2.83;;
12112;SDS011;6120;52.250;8.478;2022-09-30T16:58:08;5.80;;;2.60;;
12112;SDS011;6120;52.250;8.478;2022-09-30T17:00:36;8.07;;;2.70;;
12112;SDS011;6120;52.250;8.478;2022-09-30T17:03:03;5.68;;;2.60;;
12112;SDS011;6120;52.250;8.478;2022-09-30T17:05:30;7.43;;;2.60;;
12112;SDS011;6120;52.250;8.478;2022-09-30T17:07:57;4.30;;;1.73;;
12112;SDS011;6120;52.250;8.478;2022-09-30T17:10:28;2.75;;;1.77;;
12112;SDS011;6120;52.250;8.478;2022-09-30T17:12:57;3.05;;;1.70;;
12112;SDS011;6120;52.250;8.478;2022-09-30T17:15:29;4.13;;;1.70;;
12112;SDS011;6120;52.250;8.478;2022-09-30T17:17:56;2.47;;;1.60;;
12112;SDS011;6120;52.250;8.478;2022-09-30T17:20:24;4.47;;;1.88;;
12112;SDS011;6120;52.250;8.478;2022-09-30T17:22:51;6.03;;;2.05;;
12112;SDS011;6120;52.250;8.478;2022-09-30T17:25:17;2.35;;;1.58;;
12112;SDS011;6120;52.250;8.478;2022-09-30T17:27:47;4.32;;;1.75;;
12112;SDS011;6120;52.250;8.478;2022-09-30T17:30:17;3.75;;;1.92;;
12112;SDS011;6120;52.250;8.478;2022-09-30T17:32:45;5.57;;;1.75;;
12112;SDS011;6120;52.250;8.478;2022-09-30T17:35:12;4.82;;;2.28;;
12112;SDS011;6120;52.250;8.478;2022-09-30T17:37:39;3.90;;;2.53;;
12112;SDS011;6120;52.250;8.478;2022-09-30T17:40:11;3.10;;;1.70;;
12112;SDS011;6120;52.250;8.478;2022-09-30T17:42:56;2.85;;;1.63;;
12112;SDS011;6120;52.250;8.478;2022-09-30T17:45:41;3.97;;;1.90;;
12112;SDS011;6120;52.250;8.478;2022-09-30T17:48:09;3.35;;;2.03;;
12112;SDS011;6120;52.250;8.478;2022-09-30T17:50:41;4.20;;;2.10;;
12112;SDS011;6120;52.250;8.478;2022-09-30T17:53:10;6.25;;;2.92;;
12112;SDS011;6120;52.250;8.478;2022-09-30T17:55:42;4.40;;;2.75;;
12112;SDS011;6120;52.250;8.478;2022-09-30T17:58:12;8.00;;;4.57;;
12112;SDS011;6120;52.250;8.478;2022-09-30T18:00:40;8.15;;;4.72;;
12112;SDS011;6120;52.250;8.478;2022-09-30T18:03:07;12.05;;;5.78;;
12112;SDS011;6120;52.250;8.478;2022-09-30T18:05:35;10.20;;;4.97;;
12112;SDS011;6120;52.250;8.478;2022-09-30T18:08:02;10.20;;;4.70;;
12112;SDS011;6120;52.250;8.478;2022-09-30T18:10:29;8.23;;;3.72;;
12112;SDS011;6120;52.250;8.478;2022-09-30T18:12:55;6.40;;;3.40;;
12112;SDS011;6120;52.250;8.478;2022-09-30T18:15:22;8.32;;;4.18;;
12112;SDS011;6120;52.250;8.478;2022-09-30T18:17:48;5.60;;;3.13;;
12112;SDS011;6120;52.250;8.478;2022-09-30T18:20:15;6.35;;;3.13;;
12112;SDS011;6120;52.250;8.478;2022-09-30T18:22:45;5.00;;;2.72;;
12112;SDS011;6120;52.250;8.478;2022-09-30T18:25:12;6.00;;;2.45;;
12112;SDS011;6120;52.250;8.478;2022-09-30T18:27:49;4.90;;;2.60;;
12112;SDS011;6120;52.250;8.478;2022-09-30T18:30:21;7.63;;;2.90;;
12112;SDS011;6120;52.250;8.478;2022-09-30T18:32:48;4.90;;;2.75;;
12112;SDS011;6120;52.250;8.478;2022-09-30T18:35:17;5.13;;;3.08;;
12112;SDS011;6120;52.250;8.478;2022-09-30T18:37:46;4.82;;;2.47;;
12112;SDS011;6120;52.250;8.478;2022-09-30T18:40:19;4.35;;;2.80;;
12112;SDS011;6120;52.250;8.478;2022-09-30T18:42:47;5.72;;;2.65;;
12112;SDS011;6120;52.250;8.478;2022-09-30T18:45:14;5.63;;;3.25;;
12112;SDS011;6120;52.250;8.478;2022-09-30T18:47:41;5.90;;;3.47;;
12112;SDS011;6120;52.250;8.478;2022-09-30T18:50:09;6.55;;;4.00;;
12112;SDS011;6120;52.250;8.478;2022-09-30T18:52:37;6.45;;;4.00;;
12112;SDS011;6120;52.250;8.478;2022-09-30T18:55:04;7.20;;;4.63;;
12112;SDS011;6120;52.250;8.478;2022-09-30T18:57:32;6.18;;;3.95;;
12112;SDS011;6120;52.250;8.478;2022-09-30T18:59:59;6.90;;;4.03;;
12112;SDS011;6120;52.250;8.478;2022-09-30T19:02:27;7.07;;;4.05;;
12112;SDS011;6120;52.250;8.478;2022-09-30T19:04:54;7.10;;;4.32;;
12112;SDS011;6120;52.250;8.478;2022-09-30T19:07:25;8.20;;;4.13;;
12112;SDS011;6120;52.250;8.478;2022-09-30T19:09:52;7.63;;;4.63;;
12112;SDS011;6120;52.250;8.478;2022-09-30T19:12:18;6.60;;;3.72;;
12112;SDS011;6120;52.250;8.478;2022-09-30T19:14:45;7.90;;;3.90;;
12112;SDS011;6120;52.250;8.478;2022-09-30T19:17:13;8.40;;;4.40;;
12112;SDS011;6120;52.250;8.478;2022-09-30T19:19:40;9.18;;;4.18;;
12112;SDS011;6120;52.250;8.478;2022-09-30T19:22:10;5.95;;;4.03;;
12112;SDS011;6120;52.250;8.478;2022-09-30T19:24:38;9.50;;;4.53;;
12112;SDS011;6120;52.250;8.478;2022-09-30T19:27:06;7.38;;;4.65;;